Terminal Aerodrome Forecast
Issued by NWS Brownsville, TX

Home | Current Version | Previous Version | Text Only | Print | Product List | Glossary On
Versions: 1 2 3 4 5 6 7 8 9 10 11 12 13 14
000
FTUS44 KBRO 032320
TAFHRL
TAF
KHRL 032320Z 0400/0424 14015KT P6SM BKN070
     FM040100 13010KT P6SM BKN025
     FM041500 13017G25KT P6SM BKN050=

USA.gov is the U.S. government's official web portal to all federal, state and local government web resources and services.